sensor_id;sensor_type;location;lat;lon;timestamp;P1;durP1;ratioP1;P2;durP2;ratioP2
79365;SDS011;68833;53.160;17.920;2023-07-31T00:00:04;1.00;;;0.40;;
79365;SDS011;68833;53.160;17.920;2023-07-31T00:02:32;0.20;;;0.20;;
79365;SDS011;68833;53.160;17.920;2023-07-31T00:05:01;0.30;;;0.30;;
79365;SDS011;68833;53.160;17.920;2023-07-31T00:07:31;0.30;;;0.30;;
79365;SDS011;68833;53.160;17.920;2023-07-31T00:10:00;0.30;;;0.30;;
79365;SDS011;68833;53.160;17.920;2023-07-31T00:12:30;0.40;;;0.40;;
79365;SDS011;68833;53.160;17.920;2023-07-31T00:15:02;0.30;;;0.30;;
79365;SDS011;68833;53.160;17.920;2023-07-31T00:17:40;0.80;;;0.50;;
79365;SDS011;68833;53.160;17.920;2023-07-31T00:20:09;0.40;;;0.30;;
79365;SDS011;68833;53.160;17.920;2023-07-31T00:22:38;0.70;;;0.70;;
79365;SDS011;68833;53.160;17.920;2023-07-31T00:25:08;0.40;;;0.30;;
79365;SDS011;68833;53.160;17.920;2023-07-31T00:27:43;0.40;;;0.40;;
79365;SDS011;68833;53.160;17.920;2023-07-31T00:30:14;0.50;;;0.50;;
79365;SDS011;68833;53.160;17.920;2023-07-31T00:32:44;0.50;;;0.50;;
79365;SDS011;68833;53.160;17.920;2023-07-31T00:35:11;0.50;;;0.40;;
79365;SDS011;68833;53.160;17.920;2023-07-31T00:40:07;0.70;;;0.40;;
79365;SDS011;68833;53.160;17.920;2023-07-31T00:42:37;0.50;;;0.40;;
79365;SDS011;68833;53.160;17.920;2023-07-31T00:45:14;0.50;;;0.30;;
79365;SDS011;68833;53.160;17.920;2023-07-31T00:47:43;0.60;;;0.40;;
79365;SDS011;68833;53.160;17.920;2023-07-31T00:50:10;0.70;;;0.40;;
79365;SDS011;68833;53.160;17.920;2023-07-31T00:52:39;0.50;;;0.50;;
79365;SDS011;68833;53.160;17.920;2023-07-31T00:55:07;1.20;;;1.00;;
79365;SDS011;68833;53.160;17.920;2023-07-31T00:57:35;1.40;;;1.30;;
79365;SDS011;68833;53.160;17.920;2023-07-31T01:00:05;1.40;;;1.30;;
79365;SDS011;68833;53.160;17.920;2023-07-31T01:02:35;1.60;;;1.50;;
79365;SDS011;68833;53.160;17.920;2023-07-31T01:05:03;2.10;;;1.90;;
79365;SDS011;68833;53.160;17.920;2023-07-31T01:10:16;2.00;;;1.70;;
79365;SDS011;68833;53.160;17.920;2023-07-31T01:12:50;1.10;;;1.00;;
79365;SDS011;68833;53.160;17.920;2023-07-31T01:15:33;1.60;;;1.30;;
79365;SDS011;68833;53.160;17.920;2023-07-31T01:18:02;0.80;;;0.70;;
79365;SDS011;68833;53.160;17.920;2023-07-31T01:26:21;0.90;;;0.50;;
79365;SDS011;68833;53.160;17.920;2023-07-31T01:28:59;0.60;;;0.50;;
79365;SDS011;68833;53.160;17.920;2023-07-31T01:31:32;0.80;;;0.50;;
79365;SDS011;68833;53.160;17.920;2023-07-31T01:34:20;0.60;;;0.40;;
79365;SDS011;68833;53.160;17.920;2023-07-31T01:36:48;0.60;;;0.50;;
79365;SDS011;68833;53.160;17.920;2023-07-31T01:39:26;0.60;;;0.40;;
79365;SDS011;68833;53.160;17.920;2023-07-31T01:41:55;0.60;;;0.40;;
79365;SDS011;68833;53.160;17.920;2023-07-31T01:44:23;0.40;;;0.40;;
79365;SDS011;68833;53.160;17.920;2023-07-31T01:46:52;1.30;;;0.50;;
79365;SDS011;68833;53.160;17.920;2023-07-31T01:49:20;0.50;;;0.40;;
79365;SDS011;68833;53.160;17.920;2023-07-31T01:52:26;0.70;;;0.70;;
79365;SDS011;68833;53.160;17.920;2023-07-31T01:54:52;0.70;;;0.70;;
79365;SDS011;68833;53.160;17.920;2023-07-31T01:57:21;0.60;;;0.60;;
79365;SDS011;68833;53.160;17.920;2023-07-31T01:59:50;0.50;;;0.50;;
79365;SDS011;68833;53.160;17.920;2023-07-31T02:02:20;0.70;;;0.50;;
79365;SDS011;68833;53.160;17.920;2023-07-31T02:04:52;0.60;;;0.50;;
79365;SDS011;68833;53.160;17.920;2023-07-31T02:07:23;1.00;;;0.50;;
79365;SDS011;68833;53.160;17.920;2023-07-31T02:09:52;1.10;;;0.60;;
79365;SDS011;68833;53.160;17.920;2023-07-31T02:12:20;0.70;;;0.60;;
79365;SDS011;68833;53.160;17.920;2023-07-31T02:14:48;1.40;;;0.90;;
79365;SDS011;68833;53.160;17.920;2023-07-31T02:17:15;0.80;;;0.60;;
79365;SDS011;68833;53.160;17.920;2023-07-31T02:19:42;1.00;;;0.60;;
79365;SDS011;68833;53.160;17.920;2023-07-31T02:22:19;0.70;;;0.60;;
79365;SDS011;68833;53.160;17.920;2023-07-31T02:24:48;0.60;;;0.60;;
79365;SDS011;68833;53.160;17.920;2023-07-31T02:27:26;0.60;;;0.50;;
79365;SDS011;68833;53.160;17.920;2023-07-31T02:29:55;0.60;;;0.60;;
79365;SDS011;68833;53.160;17.920;2023-07-31T02:32:26;0.80;;;0.80;;
79365;SDS011;68833;53.160;17.920;2023-07-31T02:35:18;1.10;;;0.50;;
79365;SDS011;68833;53.160;17.920;2023-07-31T02:37:48;1.00;;;0.50;;
79365;SDS011;68833;53.160;17.920;2023-07-31T02:40:36;1.00;;;0.50;;
79365;SDS011;68833;53.160;17.920;2023-07-31T02:43:04;1.80;;;0.70;;
79365;SDS011;68833;53.160;17.920;2023-07-31T02:45:33;1.10;;;0.70;;
79365;SDS011;68833;53.160;17.920;2023-07-31T02:48:04;0.80;;;0.50;;
79365;SDS011;68833;53.160;17.920;2023-07-31T02:50:34;1.10;;;0.80;;
79365;SDS011;68833;53.160;17.920;2023-07-31T02:53:26;1.00;;;0.70;;
79365;SDS011;68833;53.160;17.920;2023-07-31T02:55:55;2.00;;;0.50;;
79365;SDS011;68833;53.160;17.920;2023-07-31T02:58:25;0.80;;;0.40;;
79365;SDS011;68833;53.160;17.920;2023-07-31T03:01:00;0.50;;;0.50;;
79365;SDS011;68833;53.160;17.920;2023-07-31T03:03:28;0.50;;;0.50;;
79365;SDS011;68833;53.160;17.920;2023-07-31T03:05:56;0.70;;;0.50;;
79365;SDS011;68833;53.160;17.920;2023-07-31T03:08:24;0.50;;;0.50;;
79365;SDS011;68833;53.160;17.920;2023-07-31T03:10:50;0.80;;;0.60;;
79365;SDS011;68833;53.160;17.920;2023-07-31T03:13:18;0.80;;;0.50;;
79365;SDS011;68833;53.160;17.920;2023-07-31T03:15:45;1.80;;;1.30;;
79365;SDS011;68833;53.160;17.920;2023-07-31T03:18:13;0.80;;;0.70;;
79365;SDS011;68833;53.160;17.920;2023-07-31T03:20:42;0.50;;;0.50;;
79365;SDS011;68833;53.160;17.920;2023-07-31T03:23:10;1.10;;;0.70;;
79365;SDS011;68833;53.160;17.920;2023-07-31T03:25:54;0.60;;;0.40;;
79365;SDS011;68833;53.160;17.920;2023-07-31T03:28:24;0.40;;;0.40;;
79365;SDS011;68833;53.160;17.920;2023-07-31T03:31:02;1.90;;;0.90;;
79365;SDS011;68833;53.160;17.920;2023-07-31T03:33:37;0.50;;;0.40;;
79365;SDS011;68833;53.160;17.920;2023-07-31T03:36:48;0.50;;;0.40;;
79365;SDS011;68833;53.160;17.920;2023-07-31T03:39:17;0.90;;;0.50;;
79365;SDS011;68833;53.160;17.920;2023-07-31T03:41:44;0.70;;;0.50;;
79365;SDS011;68833;53.160;17.920;2023-07-31T03:44:11;1.00;;;0.60;;
79365;SDS011;68833;53.160;17.920;2023-07-31T03:46:40;0.70;;;0.50;;
79365;SDS011;68833;53.160;17.920;2023-07-31T03:49:11;0.60;;;0.40;;
79365;SDS011;68833;53.160;17.920;2023-07-31T03:51:40;0.70;;;0.50;;
79365;SDS011;68833;53.160;17.920;2023-07-31T03:54:08;0.60;;;0.40;;
79365;SDS011;68833;53.160;17.920;2023-07-31T03:56:55;0.80;;;0.60;;
79365;SDS011;68833;53.160;17.920;2023-07-31T03:59:26;0.70;;;0.70;;
79365;SDS011;68833;53.160;17.920;2023-07-31T04:01:54;0.50;;;0.50;;
79365;SDS011;68833;53.160;17.920;2023-07-31T04:06:50;0.60;;;0.50;;
79365;SDS011;68833;53.160;17.920;2023-07-31T04:09:21;0.60;;;0.60;;
79365;SDS011;68833;53.160;17.920;2023-07-31T04:11:58;0.80;;;0.60;;
79365;SDS011;68833;53.160;17.920;2023-07-31T04:14:28;0.80;;;0.60;;
79365;SDS011;68833;53.160;17.920;2023-07-31T04:16:55;0.70;;;0.60;;
79365;SDS011;68833;53.160;17.920;2023-07-31T04:19:27;1.30;;;0.60;;
79365;SDS011;68833;53.160;17.920;2023-07-31T04:21:56;0.60;;;0.50;;
79365;SDS011;68833;53.160;17.920;2023-07-31T04:24:23;0.80;;;0.60;;
79365;SDS011;68833;53.160;17.920;2023-07-31T04:26:52;0.70;;;0.60;;
79365;SDS011;68833;53.160;17.920;2023-07-31T04:29:20;0.70;;;0.60;;
79365;SDS011;68833;53.160;17.920;2023-07-31T04:31:47;0.90;;;0.60;;
79365;SDS011;68833;53.160;17.920;2023-07-31T04:34:14;0.60;;;0.50;;
79365;SDS011;68833;53.160;17.920;2023-07-31T04:36:40;0.60;;;0.60;;
79365;SDS011;68833;53.160;17.920;2023-07-31T04:39:06;0.50;;;0.50;;
79365;SDS011;68833;53.160;17.920;2023-07-31T04:41:33;1.00;;;0.50;;
79365;SDS011;68833;53.160;17.920;2023-07-31T04:43:59;1.00;;;0.40;;
79365;SDS011;68833;53.160;17.920;2023-07-31T04:46:25;0.50;;;0.40;;
79365;SDS011;68833;53.160;17.920;2023-07-31T04:48:51;0.70;;;0.60;;
79365;SDS011;68833;53.160;17.920;2023-07-31T04:51:18;0.70;;;0.50;;
79365;SDS011;68833;53.160;17.920;2023-07-31T04:53:44;0.70;;;0.50;;
79365;SDS011;68833;53.160;17.920;2023-07-31T04:56:10;1.10;;;0.60;;
79365;SDS011;68833;53.160;17.920;2023-07-31T04:58:36;0.60;;;0.50;;
79365;SDS011;68833;53.160;17.920;2023-07-31T05:01:02;1.10;;;0.60;;
79365;SDS011;68833;53.160;17.920;2023-07-31T05:03:29;1.00;;;0.60;;
79365;SDS011;68833;53.160;17.920;2023-07-31T05:05:55;0.70;;;0.70;;
79365;SDS011;68833;53.160;17.920;2023-07-31T05:08:21;0.70;;;0.50;;
79365;SDS011;68833;53.160;17.920;2023-07-31T05:10:47;1.00;;;0.60;;
79365;SDS011;68833;53.160;17.920;2023-07-31T05:13:14;0.40;;;0.40;;
79365;SDS011;68833;53.160;17.920;2023-07-31T05:15:41;0.50;;;0.30;;
79365;SDS011;68833;53.160;17.920;2023-07-31T05:18:07;0.90;;;0.50;;
79365;SDS011;68833;53.160;17.920;2023-07-31T05:20:33;1.00;;;0.60;;
79365;SDS011;68833;53.160;17.920;2023-07-31T05:23:00;0.90;;;0.60;;
79365;SDS011;68833;53.160;17.920;2023-07-31T05:25:26;0.70;;;0.60;;
79365;SDS011;68833;53.160;17.920;2023-07-31T05:27:52;0.70;;;0.50;;
79365;SDS011;68833;53.160;17.920;2023-07-31T05:30:18;0.80;;;0.50;;
79365;SDS011;68833;53.160;17.920;2023-07-31T05:32:45;1.00;;;0.50;;
79365;SDS011;68833;53.160;17.920;2023-07-31T05:35:11;0.70;;;0.50;;
79365;SDS011;68833;53.160;17.920;2023-07-31T05:37:38;1.00;;;0.80;;
79365;SDS011;68833;53.160;17.920;2023-07-31T05:40:04;1.20;;;0.50;;
79365;SDS011;68833;53.160;17.920;2023-07-31T05:42:31;0.90;;;0.50;;
79365;SDS011;68833;53.160;17.920;2023-07-31T05:44:57;0.80;;;0.60;;
79365;SDS011;68833;53.160;17.920;2023-07-31T05:47:23;0.90;;;0.50;;
79365;SDS011;68833;53.160;17.920;2023-07-31T05:49:50;0.70;;;0.70;;
79365;SDS011;68833;53.160;17.920;2023-07-31T05:52:18;1.30;;;0.70;;
79365;SDS011;68833;53.160;17.920;2023-07-31T05:54:45;0.50;;;0.40;;
79365;SDS011;68833;53.160;17.920;2023-07-31T05:57:11;0.50;;;0.40;;
79365;SDS011;68833;53.160;17.920;2023-07-31T05:59:38;0.90;;;0.50;;
79365;SDS011;68833;53.160;17.920;2023-07-31T06:02:04;0.80;;;0.40;;
79365;SDS011;68833;53.160;17.920;2023-07-31T06:04:31;0.40;;;0.40;;
79365;SDS011;68833;53.160;17.920;2023-07-31T06:06:58;0.50;;;0.40;;
79365;SDS011;68833;53.160;17.920;2023-07-31T06:09:24;0.70;;;0.40;;
79365;SDS011;68833;53.160;17.920;2023-07-31T06:11:51;0.60;;;0.30;;
79365;SDS011;68833;53.160;17.920;2023-07-31T06:14:18;1.10;;;0.70;;
79365;SDS011;68833;53.160;17.920;2023-07-31T06:16:44;0.50;;;0.50;;
79365;SDS011;68833;53.160;17.920;2023-07-31T06:19:10;0.70;;;0.50;;
79365;SDS011;68833;53.160;17.920;2023-07-31T06:21:37;0.50;;;0.40;;
79365;SDS011;68833;53.160;17.920;2023-07-31T06:24:04;0.80;;;0.50;;
79365;SDS011;68833;53.160;17.920;2023-07-31T06:26:31;0.70;;;0.40;;
79365;SDS011;68833;53.160;17.920;2023-07-31T06:28:57;0.50;;;0.30;;
79365;SDS011;68833;53.160;17.920;2023-07-31T06:31:24;0.90;;;0.60;;
79365;SDS011;68833;53.160;17.920;2023-07-31T06:33:51;0.70;;;0.40;;
79365;SDS011;68833;53.160;17.920;2023-07-31T06:36:18;0.90;;;0.50;;
79365;SDS011;68833;53.160;17.920;2023-07-31T06:38:44;0.60;;;0.40;;
79365;SDS011;68833;53.160;17.920;2023-07-31T06:41:11;0.80;;;0.40;;
79365;SDS011;68833;53.160;17.920;2023-07-31T06:43:37;0.30;;;0.30;;
79365;SDS011;68833;53.160;17.920;2023-07-31T06:46:06;0.50;;;0.30;;
79365;SDS011;68833;53.160;17.920;2023-07-31T06:48:33;0.50;;;0.40;;
79365;SDS011;68833;53.160;17.920;2023-07-31T06:51:03;0.70;;;0.40;;
79365;SDS011;68833;53.160;17.920;2023-07-31T06:53:29;0.70;;;0.40;;
79365;SDS011;68833;53.160;17.920;2023-07-31T06:55:55;0.70;;;0.50;;
79365;SDS011;68833;53.160;17.920;2023-07-31T06:58:22;0.60;;;0.30;;
79365;SDS011;68833;53.160;17.920;2023-07-31T07:00:48;0.90;;;0.40;;
79365;SDS011;68833;53.160;17.920;2023-07-31T07:03:18;0.60;;;0.40;;
79365;SDS011;68833;53.160;17.920;2023-07-31T07:05:45;0.50;;;0.40;;
79365;SDS011;68833;53.160;17.920;2023-07-31T07:08:11;0.70;;;0.50;;
79365;SDS011;68833;53.160;17.920;2023-07-31T07:10:37;0.40;;;0.30;;
79365;SDS011;68833;53.160;17.920;2023-07-31T07:13:03;0.70;;;0.40;;
79365;SDS011;68833;53.160;17.920;2023-07-31T07:15:30;0.40;;;0.30;;
79365;SDS011;68833;53.160;17.920;2023-07-31T07:17:56;0.50;;;0.40;;
79365;SDS011;68833;53.160;17.920;2023-07-31T07:20:23;0.50;;;0.30;;
79365;SDS011;68833;53.160;17.920;2023-07-31T07:22:49;0.70;;;0.50;;
79365;SDS011;68833;53.160;17.920;2023-07-31T07:25:15;1.00;;;0.40;;
79365;SDS011;68833;53.160;17.920;2023-07-31T07:27:42;0.50;;;0.40;;
79365;SDS011;68833;53.160;17.920;2023-07-31T07:30:08;0.30;;;0.20;;
79365;SDS011;68833;53.160;17.920;2023-07-31T07:32:35;0.90;;;0.80;;
79365;SDS011;68833;53.160;17.920;2023-07-31T07:35:01;1.00;;;0.70;;
79365;SDS011;68833;53.160;17.920;2023-07-31T07:37:28;0.60;;;0.50;;
79365;SDS011;68833;53.160;17.920;2023-07-31T07:39:54;0.80;;;0.50;;
79365;SDS011;68833;53.160;17.920;2023-07-31T07:42:20;0.40;;;0.40;;
79365;SDS011;68833;53.160;17.920;2023-07-31T07:44:46;1.40;;;0.40;;
79365;SDS011;68833;53.160;17.920;2023-07-31T07:47:13;0.70;;;0.40;;
79365;SDS011;68833;53.160;17.920;2023-07-31T07:49:39;0.50;;;0.40;;
79365;SDS011;68833;53.160;17.920;2023-07-31T07:52:05;1.00;;;0.30;;
79365;SDS011;68833;53.160;17.920;2023-07-31T07:54:32;0.40;;;0.30;;
79365;SDS011;68833;53.160;17.920;2023-07-31T07:56:58;0.50;;;0.50;;
79365;SDS011;68833;53.160;17.920;2023-07-31T07:59:24;0.50;;;0.40;;
79365;SDS011;68833;53.160;17.920;2023-07-31T08:01:51;0.70;;;0.50;;
79365;SDS011;68833;53.160;17.920;2023-07-31T08:04:17;0.50;;;0.30;;
79365;SDS011;68833;53.160;17.920;2023-07-31T08:06:43;0.60;;;0.30;;
79365;SDS011;68833;53.160;17.920;2023-07-31T08:09:09;1.60;;;0.40;;
79365;SDS011;68833;53.160;17.920;2023-07-31T08:11:36;0.50;;;0.40;;
79365;SDS011;68833;53.160;17.920;2023-07-31T08:14:02;0.30;;;0.30;;
79365;SDS011;68833;53.160;17.920;2023-07-31T08:16:28;0.60;;;0.40;;
79365;SDS011;68833;53.160;17.920;2023-07-31T08:18:54;0.60;;;0.30;;
79365;SDS011;68833;53.160;17.920;2023-07-31T08:21:21;0.70;;;0.40;;
79365;SDS011;68833;53.160;17.920;2023-07-31T08:23:48;0.60;;;0.40;;
79365;SDS011;68833;53.160;17.920;2023-07-31T08:26:18;0.40;;;0.30;;
79365;SDS011;68833;53.160;17.920;2023-07-31T08:28:47;0.80;;;0.40;;
79365;SDS011;68833;53.160;17.920;2023-07-31T08:31:13;0.60;;;0.40;;
79365;SDS011;68833;53.160;17.920;2023-07-31T08:33:39;0.60;;;0.30;;
79365;SDS011;68833;53.160;17.920;2023-07-31T08:36:06;0.40;;;0.30;;
79365;SDS011;68833;53.160;17.920;2023-07-31T08:38:33;0.50;;;0.30;;
79365;SDS011;68833;53.160;17.920;2023-07-31T08:40:59;0.80;;;0.40;;
79365;SDS011;68833;53.160;17.920;2023-07-31T08:43:26;0.60;;;0.40;;
79365;SDS011;68833;53.160;17.920;2023-07-31T08:45:53;0.30;;;0.30;;
79365;SDS011;68833;53.160;17.920;2023-07-31T08:48:20;0.50;;;0.30;;
79365;SDS011;68833;53.160;17.920;2023-07-31T08:50:48;0.30;;;0.30;;
79365;SDS011;68833;53.160;17.920;2023-07-31T08:53:14;0.80;;;0.30;;
79365;SDS011;68833;53.160;17.920;2023-07-31T08:55:42;0.70;;;0.50;;
79365;SDS011;68833;53.160;17.920;2023-07-31T08:58:10;0.90;;;0.40;;
79365;SDS011;68833;53.160;17.920;2023-07-31T09:00:38;1.20;;;0.50;;
79365;SDS011;68833;53.160;17.920;2023-07-31T09:03:10;0.70;;;0.30;;
79365;SDS011;68833;53.160;17.920;2023-07-31T09:05:42;0.50;;;0.40;;
79365;SDS011;68833;53.160;17.920;2023-07-31T09:08:10;0.60;;;0.30;;
79365;SDS011;68833;53.160;17.920;2023-07-31T09:10:41;0.80;;;0.60;;
79365;SDS011;68833;53.160;17.920;2023-07-31T09:13:09;0.60;;;0.40;;
79365;SDS011;68833;53.160;17.920;2023-07-31T09:15:36;0.50;;;0.30;;
79365;SDS011;68833;53.160;17.920;2023-07-31T09:18:04;0.50;;;0.40;;
79365;SDS011;68833;53.160;17.920;2023-07-31T09:20:31;0.70;;;0.30;;
79365;SDS011;68833;53.160;17.920;2023-07-31T09:23:09;0.50;;;0.30;;
79365;SDS011;68833;53.160;17.920;2023-07-31T09:25:37;0.50;;;0.30;;
79365;SDS011;68833;53.160;17.920;2023-07-31T09:28:05;0.40;;;0.40;;
79365;SDS011;68833;53.160;17.920;2023-07-31T09:30:47;0.90;;;0.40;;
79365;SDS011;68833;53.160;17.920;2023-07-31T09:33:16;0.60;;;0.40;;
79365;SDS011;68833;53.160;17.920;2023-07-31T09:35:44;0.50;;;0.40;;
79365;SDS011;68833;53.160;17.920;2023-07-31T09:38:11;0.80;;;0.40;;
79365;SDS011;68833;53.160;17.920;2023-07-31T09:40:49;0.90;;;0.40;;
79365;SDS011;68833;53.160;17.920;2023-07-31T09:43:19;0.40;;;0.30;;
79365;SDS011;68833;53.160;17.920;2023-07-31T09:45:47;0.70;;;0.40;;
79365;SDS011;68833;53.160;17.920;2023-07-31T09:48:14;0.90;;;0.40;;
79365;SDS011;68833;53.160;17.920;2023-07-31T09:50:43;0.30;;;0.20;;
79365;SDS011;68833;53.160;17.920;2023-07-31T09:53:11;0.60;;;0.40;;
79365;SDS011;68833;53.160;17.920;2023-07-31T09:55:38;0.40;;;0.30;;
79365;SDS011;68833;53.160;17.920;2023-07-31T09:58:06;0.60;;;0.40;;
79365;SDS011;68833;53.160;17.920;2023-07-31T10:03:37;0.30;;;0.30;;
79365;SDS011;68833;53.160;17.920;2023-07-31T10:06:06;1.00;;;0.50;;
79365;SDS011;68833;53.160;17.920;2023-07-31T10:08:36;0.70;;;0.50;;
79365;SDS011;68833;53.160;17.920;2023-07-31T10:11:04;1.10;;;0.60;;
79365;SDS011;68833;53.160;17.920;2023-07-31T10:13:33;0.80;;;0.50;;
79365;SDS011;68833;53.160;17.920;2023-07-31T10:16:00;0.70;;;0.60;;
79365;SDS011;68833;53.160;17.920;2023-07-31T10:18:28;0.90;;;0.60;;
79365;SDS011;68833;53.160;17.920;2023-07-31T10:20:56;0.70;;;0.60;;
79365;SDS011;68833;53.160;17.920;2023-07-31T10:23:24;0.60;;;0.40;;
79365;SDS011;68833;53.160;17.920;2023-07-31T10:25:54;0.60;;;0.40;;
79365;SDS011;68833;53.160;17.920;2023-07-31T10:28:23;1.00;;;0.50;;
79365;SDS011;68833;53.160;17.920;2023-07-31T10:30:51;0.70;;;0.40;;
79365;SDS011;68833;53.160;17.920;2023-07-31T10:33:18;0.80;;;0.60;;
79365;SDS011;68833;53.160;17.920;2023-07-31T10:35:47;0.80;;;0.60;;
79365;SDS011;68833;53.160;17.920;2023-07-31T10:38:15;0.70;;;0.50;;
79365;SDS011;68833;53.160;17.920;2023-07-31T10:40:42;1.20;;;0.50;;
79365;SDS011;68833;53.160;17.920;2023-07-31T10:43:09;1.30;;;0.50;;
79365;SDS011;68833;53.160;17.920;2023-07-31T10:45:51;0.80;;;0.60;;
79365;SDS011;68833;53.160;17.920;2023-07-31T10:48:18;1.70;;;0.50;;
79365;SDS011;68833;53.160;17.920;2023-07-31T10:53:25;0.80;;;0.60;;
79365;SDS011;68833;53.160;17.920;2023-07-31T10:55:53;0.90;;;0.60;;
79365;SDS011;68833;53.160;17.920;2023-07-31T10:58:25;0.70;;;0.50;;
79365;SDS011;68833;53.160;17.920;2023-07-31T11:00:56;1.10;;;0.50;;
79365;SDS011;68833;53.160;17.920;2023-07-31T11:03:25;0.80;;;0.80;;
79365;SDS011;68833;53.160;17.920;2023-07-31T11:08:28;1.00;;;0.70;;
79365;SDS011;68833;53.160;17.920;2023-07-31T11:13:31;0.90;;;0.40;;
79365;SDS011;68833;53.160;17.920;2023-07-31T11:15:59;0.40;;;0.40;;
79365;SDS011;68833;53.160;17.920;2023-07-31T11:18:26;0.60;;;0.40;;
79365;SDS011;68833;53.160;17.920;2023-07-31T11:20:54;0.70;;;0.50;;
79365;SDS011;68833;53.160;17.920;2023-07-31T11:23:21;0.40;;;0.30;;
79365;SDS011;68833;53.160;17.920;2023-07-31T11:25:50;0.50;;;0.50;;
79365;SDS011;68833;53.160;17.920;2023-07-31T11:28:18;0.40;;;0.30;;
79365;SDS011;68833;53.160;17.920;2023-07-31T11:30:46;0.40;;;0.40;;
79365;SDS011;68833;53.160;17.920;2023-07-31T11:33:13;0.50;;;0.50;;
79365;SDS011;68833;53.160;17.920;2023-07-31T11:35:49;0.80;;;0.40;;
79365;SDS011;68833;53.160;17.920;2023-07-31T11:38:31;0.70;;;0.50;;
79365;SDS011;68833;53.160;17.920;2023-07-31T11:41:03;0.70;;;0.50;;
79365;SDS011;68833;53.160;17.920;2023-07-31T11:43:30;0.80;;;0.60;;
79365;SDS011;68833;53.160;17.920;2023-07-31T11:45:59;0.50;;;0.40;;
79365;SDS011;68833;53.160;17.920;2023-07-31T11:48:31;0.70;;;0.40;;
79365;SDS011;68833;53.160;17.920;2023-07-31T11:51:03;0.60;;;0.30;;
79365;SDS011;68833;53.160;17.920;2023-07-31T11:53:44;0.90;;;0.30;;
79365;SDS011;68833;53.160;17.920;2023-07-31T11:56:17;0.70;;;0.40;;
79365;SDS011;68833;53.160;17.920;2023-07-31T11:58:47;0.40;;;0.30;;
79365;SDS011;68833;53.160;17.920;2023-07-31T12:01:18;0.70;;;0.30;;
79365;SDS011;68833;53.160;17.920;2023-07-31T12:03:47;0.70;;;0.40;;
79365;SDS011;68833;53.160;17.920;2023-07-31T12:06:16;0.30;;;0.30;;
79365;SDS011;68833;53.160;17.920;2023-07-31T12:08:43;0.60;;;0.50;;
79365;SDS011;68833;53.160;17.920;2023-07-31T12:11:10;0.60;;;0.40;;
79365;SDS011;68833;53.160;17.920;2023-07-31T12:13:37;0.30;;;0.30;;
79365;SDS011;68833;53.160;17.920;2023-07-31T12:16:04;0.40;;;0.40;;
79365;SDS011;68833;53.160;17.920;2023-07-31T12:18:36;0.50;;;0.30;;
79365;SDS011;68833;53.160;17.920;2023-07-31T12:21:05;1.10;;;0.40;;
79365;SDS011;68833;53.160;17.920;2023-07-31T12:23:33;0.50;;;0.40;;
79365;SDS011;68833;53.160;17.920;2023-07-31T12:26:03;0.50;;;0.40;;
79365;SDS011;68833;53.160;17.920;2023-07-31T12:28:42;0.60;;;0.30;;
79365;SDS011;68833;53.160;17.920;2023-07-31T12:31:12;0.40;;;0.30;;
79365;SDS011;68833;53.160;17.920;2023-07-31T12:36:09;0.40;;;0.20;;
79365;SDS011;68833;53.160;17.920;2023-07-31T12:38:59;0.50;;;0.40;;
79365;SDS011;68833;53.160;17.920;2023-07-31T12:41:26;0.60;;;0.40;;
79365;SDS011;68833;53.160;17.920;2023-07-31T12:43:53;0.40;;;0.40;;
79365;SDS011;68833;53.160;17.920;2023-07-31T12:46:20;0.20;;;0.10;;
79365;SDS011;68833;53.160;17.920;2023-07-31T12:48:47;0.80;;;0.40;;
79365;SDS011;68833;53.160;17.920;2023-07-31T12:51:14;0.30;;;0.30;;
79365;SDS011;68833;53.160;17.920;2023-07-31T12:53:41;0.60;;;0.40;;
79365;SDS011;68833;53.160;17.920;2023-07-31T12:56:08;0.70;;;0.40;;
79365;SDS011;68833;53.160;17.920;2023-07-31T12:58:35;0.60;;;0.40;;
79365;SDS011;68833;53.160;17.920;2023-07-31T13:01:02;0.50;;;0.40;;
79365;SDS011;68833;53.160;17.920;2023-07-31T13:03:29;0.50;;;0.40;;
79365;SDS011;68833;53.160;17.920;2023-07-31T13:05:56;0.50;;;0.40;;
79365;SDS011;68833;53.160;17.920;2023-07-31T13:08:23;0.40;;;0.30;;
79365;SDS011;68833;53.160;17.920;2023-07-31T13:10:50;0.90;;;0.40;;
79365;SDS011;68833;53.160;17.920;2023-07-31T13:13:17;0.60;;;0.40;;
79365;SDS011;68833;53.160;17.920;2023-07-31T13:15:44;0.60;;;0.30;;
79365;SDS011;68833;53.160;17.920;2023-07-31T13:18:11;0.30;;;0.20;;
79365;SDS011;68833;53.160;17.920;2023-07-31T13:20:38;0.50;;;0.30;;
79365;SDS011;68833;53.160;17.920;2023-07-31T13:23:05;0.30;;;0.30;;
79365;SDS011;68833;53.160;17.920;2023-07-31T13:25:32;0.30;;;0.30;;
79365;SDS011;68833;53.160;17.920;2023-07-31T13:27:59;1.10;;;0.30;;
79365;SDS011;68833;53.160;17.920;2023-07-31T13:30:26;0.60;;;0.30;;
79365;SDS011;68833;53.160;17.920;2023-07-31T13:32:53;0.40;;;0.30;;
79365;SDS011;68833;53.160;17.920;2023-07-31T13:35:20;0.40;;;0.30;;
79365;SDS011;68833;53.160;17.920;2023-07-31T13:37:47;0.80;;;0.40;;
79365;SDS011;68833;53.160;17.920;2023-07-31T13:40:15;0.70;;;0.30;;
79365;SDS011;68833;53.160;17.920;2023-07-31T13:42:42;0.30;;;0.30;;
79365;SDS011;68833;53.160;17.920;2023-07-31T13:45:08;0.60;;;0.40;;
79365;SDS011;68833;53.160;17.920;2023-07-31T13:47:35;0.70;;;0.50;;
79365;SDS011;68833;53.160;17.920;2023-07-31T13:50:03;0.80;;;0.30;;
79365;SDS011;68833;53.160;17.920;2023-07-31T13:52:31;1.20;;;1.00;;
79365;SDS011;68833;53.160;17.920;2023-07-31T13:54:58;0.60;;;0.50;;
79365;SDS011;68833;53.160;17.920;2023-07-31T13:57:25;0.40;;;0.30;;
79365;SDS011;68833;53.160;17.920;2023-07-31T13:59:52;0.60;;;0.40;;
79365;SDS011;68833;53.160;17.920;2023-07-31T14:02:19;0.50;;;0.40;;
79365;SDS011;68833;53.160;17.920;2023-07-31T14:04:45;0.90;;;0.40;;
79365;SDS011;68833;53.160;17.920;2023-07-31T14:07:12;0.40;;;0.40;;
79365;SDS011;68833;53.160;17.920;2023-07-31T14:09:39;0.60;;;0.40;;
79365;SDS011;68833;53.160;17.920;2023-07-31T14:12:08;0.40;;;0.30;;
79365;SDS011;68833;53.160;17.920;2023-07-31T14:14:36;0.50;;;0.40;;
79365;SDS011;68833;53.160;17.920;2023-07-31T14:17:03;0.60;;;0.40;;
79365;SDS011;68833;53.160;17.920;2023-07-31T14:19:30;0.40;;;0.40;;
79365;SDS011;68833;53.160;17.920;2023-07-31T14:21:59;0.50;;;0.30;;
79365;SDS011;68833;53.160;17.920;2023-07-31T14:24:27;0.30;;;0.30;;
79365;SDS011;68833;53.160;17.920;2023-07-31T14:26:55;0.20;;;0.20;;
79365;SDS011;68833;53.160;17.920;2023-07-31T14:29:22;0.80;;;0.40;;
79365;SDS011;68833;53.160;17.920;2023-07-31T14:31:51;0.70;;;0.30;;
79365;SDS011;68833;53.160;17.920;2023-07-31T14:34:18;0.50;;;0.30;;
79365;SDS011;68833;53.160;17.920;2023-07-31T14:36:46;0.30;;;0.30;;
79365;SDS011;68833;53.160;17.920;2023-07-31T14:39:14;0.40;;;0.40;;
79365;SDS011;68833;53.160;17.920;2023-07-31T14:41:41;0.30;;;0.30;;
79365;SDS011;68833;53.160;17.920;2023-07-31T14:44:11;0.30;;;0.30;;
79365;SDS011;68833;53.160;17.920;2023-07-31T14:46:38;0.60;;;0.50;;
79365;SDS011;68833;53.160;17.920;2023-07-31T14:49:06;0.20;;;0.20;;
79365;SDS011;68833;53.160;17.920;2023-07-31T14:51:33;0.40;;;0.40;;
79365;SDS011;68833;53.160;17.920;2023-07-31T14:54:00;0.30;;;0.30;;
79365;SDS011;68833;53.160;17.920;2023-07-31T14:56:27;0.30;;;0.30;;
79365;SDS011;68833;53.160;17.920;2023-07-31T14:58:54;1.00;;;0.40;;
79365;SDS011;68833;53.160;17.920;2023-07-31T15:01:21;0.20;;;0.20;;
79365;SDS011;68833;53.160;17.920;2023-07-31T15:03:48;0.50;;;0.40;;
79365;SDS011;68833;53.160;17.920;2023-07-31T15:06:15;0.60;;;0.30;;
79365;SDS011;68833;53.160;17.920;2023-07-31T15:08:42;0.50;;;0.40;;